createdAt,value
2019-06-20T00:01:37.038Z,14.60
2019-06-20T00:04:05.406Z,15.20
2019-06-20T00:06:33.835Z,15.20
2019-06-20T00:09:02.690Z,15.13
2019-06-20T00:11:31.139Z,14.90
2019-06-20T00:13:59.541Z,14.80
2019-06-20T00:16:28.011Z,14.87
2019-06-20T00:18:56.421Z,15.23
2019-06-20T00:21:24.810Z,15.07
2019-06-20T00:23:53.227Z,14.80
2019-06-20T00:26:21.950Z,14.20
2019-06-20T00:28:50.351Z,15.13
2019-06-20T00:31:18.763Z,16.03
2019-06-20T00:33:47.160Z,14.37
2019-06-20T00:36:15.570Z,15.07
2019-06-20T00:38:43.957Z,13.90
2019-06-20T00:41:12.359Z,14.40
2019-06-20T00:43:41.040Z,14.77
2019-06-20T00:46:09.499Z,13.60
2019-06-20T00:48:38.006Z,13.13
2019-06-20T00:51:06.373Z,14.27
2019-06-20T00:53:34.766Z,13.07
2019-06-20T00:56:04.953Z,13.17
2019-06-20T00:58:33.451Z,12.87
2019-06-20T01:01:01.886Z,12.30
2019-06-20T01:03:30.280Z,13.20
2019-06-20T01:05:58.680Z,11.90
2019-06-20T01:08:27.086Z,13.00
2019-06-20T01:10:55.506Z,12.93
2019-06-20T01:13:32.955Z,13.13
2019-06-20T01:15:54.057Z,12.90
2019-06-20T01:18:22.532Z,12.67
2019-06-20T01:20:51.285Z,13.10
2019-06-20T01:23:19.694Z,12.03
2019-06-20T01:25:48.331Z,11.43
2019-06-20T01:28:26.403Z,12.93
2019-06-20T01:30:50.593Z,12.13
2019-06-20T01:33:19.068Z,12.00
2019-06-20T01:35:48.191Z,11.83
2019-06-20T01:38:16.600Z,11.57
2019-06-20T01:40:44.993Z,11.60
2019-06-20T01:43:13.565Z,12.13
2019-06-20T01:45:42.013Z,11.40
2019-06-20T01:48:10.397Z,12.53
2019-06-20T01:50:38.803Z,12.30
2019-06-20T01:53:07.197Z,12.70
2019-06-20T01:55:35.596Z,12.03
2019-06-20T01:58:03.989Z,12.30
2019-06-20T02:00:40.940Z,11.60
2019-06-20T02:03:09.347Z,11.20
2019-06-20T02:05:37.748Z,11.70
2019-06-20T02:08:06.204Z,11.83
2019-06-20T02:10:34.927Z,11.73
2019-06-20T02:13:03.324Z,11.87
2019-06-20T02:15:31.735Z,11.77
2019-06-20T02:18:00.351Z,11.50
2019-06-20T02:20:51.625Z,11.30
2019-06-20T02:23:20.514Z,11.30
2019-06-20T02:25:49.216Z,11.80
2019-06-20T02:28:17.662Z,12.40
2019-06-20T02:30:46.228Z,12.20
2019-06-20T02:33:14.904Z,13.13
2019-06-20T02:35:43.315Z,11.80
2019-06-20T02:38:11.741Z,12.30
2019-06-20T02:40:40.314Z,11.53
2019-06-20T02:43:09.099Z,13.93
2019-06-20T02:45:37.946Z,14.30
2019-06-20T02:48:06.670Z,14.87
2019-06-20T02:50:35.221Z,15.53
2019-06-20T02:53:04.964Z,16.63
2019-06-20T02:55:33.789Z,16.80
2019-06-20T02:58:02.273Z,16.53
2019-06-20T03:00:58.763Z,17.20
2019-06-20T03:03:28.400Z,17.27
2019-06-20T03:05:57.780Z,16.90
2019-06-20T03:08:27.021Z,18.60
2019-06-20T03:10:55.794Z,19.60
2019-06-20T03:13:24.324Z,19.57
2019-06-20T03:15:52.760Z,19.70
2019-06-20T03:18:21.246Z,19.73
2019-06-20T03:20:49.665Z,19.50
2019-06-20T03:23:18.413Z,19.97
2019-06-20T03:25:46.800Z,20.47
2019-06-20T03:28:15.221Z,20.70
2019-06-20T03:30:43.680Z,19.77
2019-06-20T03:33:12.189Z,20.03
2019-06-20T03:35:40.802Z,22.23
2019-06-20T03:38:09.190Z,22.17
2019-06-20T03:40:37.595Z,21.23
2019-06-20T03:43:06.063Z,21.83
2019-06-20T03:45:35.717Z,22.43
2019-06-20T03:48:04.693Z,22.73
2019-06-20T03:50:33.148Z,21.57
2019-06-20T03:53:01.873Z,20.47
2019-06-20T03:55:33.920Z,21.57
2019-06-20T03:58:02.493Z,21.40
2019-06-20T04:00:33.290Z,19.87
2019-06-20T04:03:01.987Z,19.83
2019-06-20T04:05:30.394Z,21.37
2019-06-20T04:07:59.060Z,18.63
2019-06-20T04:10:27.539Z,18.13
2019-06-20T04:12:56.168Z,18.60
2019-06-20T04:15:24.693Z,16.90
2019-06-20T04:17:53.092Z,18.00
2019-06-20T04:20:21.562Z,18.60
2019-06-20T04:22:49.945Z,17.20
2019-06-20T04:25:18.333Z,16.73
2019-06-20T04:27:46.735Z,17.90
2019-06-20T04:30:15.299Z,17.13
2019-06-20T04:32:43.984Z,18.20
2019-06-20T04:35:12.510Z,17.10
2019-06-20T04:37:40.918Z,19.00
2019-06-20T04:40:09.694Z,17.50
2019-06-20T04:42:38.075Z,16.60
2019-06-20T04:45:09.059Z,18.40
2019-06-20T04:47:37.491Z,20.70
2019-06-20T04:50:06.633Z,17.10
2019-06-20T04:52:35.031Z,21.07
2019-06-20T04:55:04.003Z,21.30
2019-06-20T04:57:32.489Z,21.90
2019-06-20T05:00:03.264Z,25.07
2019-06-20T05:02:34.234Z,19.37
2019-06-20T05:05:04.628Z,19.87
2019-06-20T05:07:33.058Z,19.13
2019-06-20T05:10:01.511Z,21.63
2019-06-20T05:12:29.896Z,22.70
2019-06-20T05:14:58.292Z,21.60
2019-06-20T05:17:26.706Z,20.90
2019-06-20T05:19:55.187Z,22.90
2019-06-20T05:22:23.896Z,23.50
2019-06-20T05:24:52.294Z,24.57
2019-06-20T05:27:21.668Z,23.53
2019-06-20T05:29:50.069Z,23.07
2019-06-20T05:32:18.467Z,20.60
2019-06-20T05:34:46.879Z,21.23
2019-06-20T05:37:15.270Z,22.53
2019-06-20T05:39:43.702Z,22.10
2019-06-20T05:42:12.099Z,22.00
2019-06-20T05:44:40.497Z,19.83
2019-06-20T05:47:13.596Z,21.80
2019-06-20T05:49:39.425Z,19.97
2019-06-20T05:52:07.818Z,21.80
2019-06-20T05:54:39.867Z,21.83
2019-06-20T05:57:10.849Z,22.60
2019-06-20T05:59:39.231Z,21.80
2019-06-20T06:02:07.994Z,21.03
2019-06-20T06:04:36.392Z,22.80
2019-06-20T06:07:05.180Z,22.50
2019-06-20T06:09:33.665Z,20.97
2019-06-20T06:12:02.077Z,20.63
2019-06-20T06:14:31.614Z,21.00
2019-06-20T06:17:00.362Z,20.50
2019-06-20T06:19:28.828Z,20.17
2019-06-20T06:21:57.323Z,20.40
2019-06-20T06:24:25.683Z,20.10
2019-06-20T06:26:54.085Z,20.80
2019-06-20T06:29:22.551Z,18.67
2019-06-20T06:31:50.997Z,19.93
2019-06-20T06:34:21.965Z,21.17
2019-06-20T06:36:49.680Z,19.63
2019-06-20T06:39:18.185Z,19.37
2019-06-20T06:41:46.587Z,19.60
2019-06-20T06:44:14.986Z,19.17
2019-06-20T06:46:52.088Z,19.67
2019-06-20T06:49:17.102Z,21.27
2019-06-20T06:51:45.491Z,17.07
2019-06-20T06:54:13.880Z,18.47
2019-06-20T06:56:42.317Z,17.30
2019-06-20T06:59:15.504Z,18.57
2019-06-20T07:01:43.958Z,17.10
2019-06-20T07:04:12.378Z,16.37
2019-06-20T07:06:40.842Z,18.40
2019-06-20T07:09:09.673Z,17.50
2019-06-20T07:11:38.223Z,17.60
2019-06-20T07:14:06.784Z,18.00
2019-06-20T07:16:35.241Z,16.97
2019-06-20T07:19:03.715Z,18.00
2019-06-20T07:21:32.148Z,19.40
2019-06-20T07:24:01.025Z,18.80
2019-06-20T07:26:29.501Z,18.27
2019-06-20T07:28:57.922Z,17.90
2019-06-20T07:31:26.338Z,18.37
2019-06-20T07:33:54.726Z,16.90
2019-06-20T07:36:23.263Z,17.30
2019-06-20T07:38:51.809Z,18.30
2019-06-20T07:41:20.213Z,18.60
2019-06-20T07:43:48.914Z,17.20
2019-06-20T07:46:17.597Z,18.70
2019-06-20T07:48:46.011Z,19.20
2019-06-20T07:51:14.405Z,18.20
2019-06-20T07:53:42.819Z,18.10
2019-06-20T07:56:11.279Z,16.90
2019-06-20T07:58:39.757Z,17.37
2019-06-20T08:01:08.216Z,18.40
2019-06-20T08:03:36.619Z,18.67
2019-06-20T08:06:05.483Z,18.43
2019-06-20T08:08:33.900Z,17.37
2019-06-20T08:11:02.380Z,17.30
2019-06-20T08:13:30.789Z,18.43
2019-06-20T08:15:59.223Z,17.00
2019-06-20T08:18:27.614Z,17.17
2019-06-20T08:20:56.115Z,17.03
2019-06-20T08:23:24.505Z,17.10
2019-06-20T08:25:52.905Z,15.20
2019-06-20T08:28:21.314Z,14.73
2019-06-20T08:30:49.701Z,13.00
2019-06-20T08:33:18.152Z,13.57
2019-06-20T08:35:46.552Z,13.80
2019-06-20T08:38:14.962Z,12.53
2019-06-20T08:40:43.355Z,12.50
2019-06-20T08:43:11.807Z,13.00
2019-06-20T08:45:42.191Z,12.90
2019-06-20T08:48:10.740Z,13.37
2019-06-20T08:50:40.351Z,13.57
2019-06-20T08:53:08.966Z,13.47
2019-06-20T08:55:38.189Z,12.10
2019-06-20T08:58:06.740Z,12.50
2019-06-20T09:00:37.363Z,12.70
2019-06-20T09:03:06.657Z,12.70
2019-06-20T09:05:35.258Z,12.53
2019-06-20T09:08:04.799Z,12.33
2019-06-20T09:10:41.248Z,11.80
2019-06-20T09:13:11.384Z,12.17
2019-06-20T09:15:40.167Z,11.50
2019-06-20T09:18:08.747Z,12.03
2019-06-20T09:20:37.573Z,11.20
2019-06-20T09:23:10.622Z,12.87
2019-06-20T09:25:38.790Z,11.90
2019-06-20T09:28:07.550Z,12.43
2019-06-20T09:30:37.212Z,13.27
2019-06-20T09:33:05.937Z,12.17
2019-06-20T09:35:34.534Z,11.77
2019-06-20T09:38:03.480Z,12.67
2019-06-20T09:40:32.111Z,11.80
2019-06-20T09:43:00.543Z,12.50
2019-06-20T09:45:29.268Z,12.07
2019-06-20T09:47:58.257Z,12.57
2019-06-20T09:50:27.760Z,12.03
2019-06-20T09:52:56.774Z,11.20
2019-06-20T09:55:25.250Z,12.43
2019-06-20T09:57:53.821Z,12.80
2019-06-20T10:00:24.934Z,12.07
2019-06-20T10:02:55.390Z,13.20
2019-06-20T10:05:24.413Z,11.40
2019-06-20T10:07:54.362Z,12.17
2019-06-20T10:10:25.975Z,11.70
2019-06-20T10:12:55.775Z,11.20
2019-06-20T10:15:28.592Z,11.77
2019-06-20T10:17:57.258Z,11.87
2019-06-20T10:20:27.000Z,12.60
2019-06-20T10:22:55.390Z,12.50
2019-06-20T10:25:23.856Z,10.77
2019-06-20T10:27:53.697Z,12.87
2019-06-20T10:30:24.420Z,12.10
2019-06-20T10:32:53.212Z,12.57
2019-06-20T10:35:21.920Z,11.40
2019-06-20T10:37:50.598Z,11.67
2019-06-20T10:40:20.227Z,11.53
2019-06-20T10:42:50.147Z,11.73
2019-06-20T10:45:21.089Z,12.37
2019-06-20T10:47:50.915Z,11.60
2019-06-20T10:50:20.727Z,11.07
2019-06-20T10:52:50.099Z,11.73
2019-06-20T10:55:19.289Z,11.47
2019-06-20T10:57:49.549Z,10.33
2019-06-20T11:03:58.745Z,11.30
2019-06-20T11:06:27.150Z,11.43
2019-06-20T11:08:55.569Z,10.60
2019-06-20T11:11:24.090Z,11.03
2019-06-20T11:13:52.530Z,10.10
2019-06-20T11:16:20.877Z,11.10
2019-06-20T11:18:49.295Z,11.10
2019-06-20T11:21:17.694Z,10.80
2019-06-20T11:23:47.358Z,10.93
2019-06-20T11:26:15.781Z,11.50
2019-06-20T11:28:44.783Z,11.27
2019-06-20T11:31:13.245Z,10.80
2019-06-20T11:33:42.087Z,10.67
2019-06-20T11:36:11.470Z,10.73
2019-06-20T11:38:40.708Z,11.50
2019-06-20T11:41:09.198Z,11.67
2019-06-20T11:43:38.384Z,10.53
2019-06-20T11:46:06.858Z,11.93
2019-06-20T11:48:36.754Z,10.17
2019-06-20T11:51:05.219Z,11.27
2019-06-20T11:53:35.299Z,10.80
2019-06-20T11:56:04.128Z,11.83
2019-06-20T11:58:32.595Z,11.07
2019-06-20T12:01:03.831Z,10.83
2019-06-20T12:03:31.117Z,10.60
2019-06-20T12:05:59.654Z,10.50
2019-06-20T12:08:28.152Z,10.70
2019-06-20T12:10:56.544Z,11.03
2019-06-20T12:13:24.941Z,10.53
2019-06-20T12:15:53.606Z,11.30
2019-06-20T12:18:22.007Z,11.83
2019-06-20T12:20:50.407Z,10.77
2019-06-20T12:23:18.832Z,11.00
2019-06-20T12:25:48.797Z,10.40
2019-06-20T12:28:17.341Z,11.73
2019-06-20T12:30:45.937Z,10.83
2019-06-20T12:33:14.646Z,11.30
2019-06-20T12:35:44.477Z,10.37
2019-06-20T12:38:15.123Z,10.80
2019-06-20T12:40:44.095Z,11.40
2019-06-20T12:43:12.494Z,10.27
2019-06-20T12:45:41.372Z,11.10
2019-06-20T12:48:10.987Z,9.60
2019-06-20T12:50:40.260Z,11.23
2019-06-20T12:53:09.521Z,10.90
2019-06-20T12:55:38.916Z,11.10
2019-06-20T12:58:08.096Z,11.57
2019-06-20T13:00:38.939Z,11.57
2019-06-20T13:03:07.086Z,11.30
2019-06-20T13:05:35.909Z,13.40
2019-06-20T13:08:06.435Z,12.80
2019-06-20T13:10:34.777Z,13.80
2019-06-20T13:13:03.156Z,13.03
2019-06-20T13:15:31.585Z,12.73
2019-06-20T13:18:00.039Z,12.33
2019-06-20T13:20:28.438Z,13.07
2019-06-20T13:22:56.848Z,13.30
2019-06-20T13:25:25.287Z,14.40
2019-06-20T13:27:53.624Z,13.57
2019-06-20T13:30:22.131Z,13.83
2019-06-20T13:32:50.520Z,14.40
2019-06-20T13:35:20.138Z,14.47
2019-06-20T13:37:49.869Z,13.80
2019-06-20T13:40:18.943Z,15.60
2019-06-20T13:42:48.077Z,15.80
2019-06-20T13:45:22.001Z,17.90
2019-06-20T13:47:50.540Z,17.67
2019-06-20T13:50:19.568Z,17.53
2019-06-20T13:52:49.564Z,17.50
2019-06-20T13:55:18.320Z,18.17
2019-06-20T13:57:47.335Z,19.37
2019-06-20T14:00:18.468Z,18.53
2019-06-20T14:02:48.503Z,19.37
2019-06-20T14:05:17.301Z,20.03
2019-06-20T14:07:48.490Z,21.00
2019-06-20T14:10:16.821Z,20.43
2019-06-20T14:12:46.713Z,21.97
2019-06-20T14:15:16.361Z,21.70
2019-06-20T14:17:45.043Z,21.07
2019-06-20T14:20:16.161Z,20.43
2019-06-20T14:22:45.120Z,20.30
2019-06-20T14:25:14.160Z,19.20
2019-06-20T14:27:43.866Z,19.90
2019-06-20T14:30:13.393Z,19.80
2019-06-20T14:32:43.143Z,19.47
2019-06-20T14:35:12.426Z,19.43
2019-06-20T14:37:43.375Z,19.87
2019-06-20T14:40:12.921Z,19.37
2019-06-20T14:42:42.782Z,19.77
2019-06-20T14:45:12.481Z,21.00
2019-06-20T14:47:41.178Z,18.57
2019-06-20T14:50:10.783Z,22.30
2019-06-20T14:52:39.464Z,21.37
2019-06-20T14:55:08.543Z,21.30
2019-06-20T14:57:36.976Z,20.67
2019-06-20T15:00:09.323Z,21.93
2019-06-20T15:02:43.753Z,20.33
2019-06-20T15:05:17.229Z,19.70
2019-06-20T15:07:47.201Z,20.50
2019-06-20T15:10:21.203Z,19.40
2019-06-20T15:12:50.238Z,19.70
2019-06-20T15:15:19.289Z,16.97
2019-06-20T15:17:50.354Z,16.80
2019-06-20T15:20:18.336Z,17.00
2019-06-20T15:22:48.597Z,16.17
2019-06-20T15:25:20.470Z,15.80
2019-06-20T15:27:51.121Z,15.30
2019-06-20T15:30:19.514Z,15.00
2019-06-20T15:32:59.270Z,15.40
2019-06-20T15:35:18.078Z,16.97
2019-06-20T15:37:47.874Z,15.13
2019-06-20T15:40:16.740Z,15.30
2019-06-20T15:42:45.116Z,14.90
2019-06-20T15:45:13.669Z,12.90
2019-06-20T15:47:42.100Z,14.60
2019-06-20T15:50:14.022Z,13.40
2019-06-20T15:52:42.542Z,12.90
2019-06-20T15:55:11.401Z,10.70
2019-06-20T15:57:40.401Z,10.30
2019-06-20T16:00:10.543Z,10.67
2019-06-20T16:02:38.983Z,10.90
2019-06-20T16:05:08.423Z,11.17
2019-06-20T16:07:36.992Z,10.10
2019-06-20T16:10:08.500Z,10.33
2019-06-20T16:12:36.882Z,9.33
2019-06-20T16:15:09.564Z,10.97
2019-06-20T16:17:38.214Z,9.60
2019-06-20T16:20:08.145Z,9.40
2019-06-20T16:22:37.260Z,9.50
2019-06-20T16:25:07.628Z,10.37
2019-06-20T16:27:36.021Z,9.10
2019-06-20T16:30:07.104Z,10.67
2019-06-20T16:32:35.504Z,10.77
2019-06-20T16:35:06.988Z,10.90
2019-06-20T16:37:35.371Z,9.70
2019-06-20T16:40:05.459Z,10.80
2019-06-20T16:42:33.850Z,9.10
2019-06-20T16:45:02.254Z,9.17
2019-06-20T16:47:30.760Z,10.00
2019-06-20T16:49:59.158Z,9.87
2019-06-20T16:52:27.642Z,8.87
2019-06-20T16:54:56.089Z,9.50
2019-06-20T16:57:24.485Z,9.10
2019-06-20T16:59:52.910Z,8.63
2019-06-20T17:02:21.435Z,8.87
2019-06-20T17:04:50.149Z,7.93
2019-06-20T17:07:18.581Z,8.50
2019-06-20T17:09:47.082Z,8.50
2019-06-20T17:12:15.490Z,9.10
2019-06-20T17:14:43.873Z,7.80
2019-06-20T17:17:12.392Z,8.37
2019-06-20T17:19:42.240Z,8.87
2019-06-20T17:22:10.685Z,9.20
2019-06-20T17:24:38.068Z,8.70
2019-06-20T17:27:06.523Z,9.40
2019-06-20T17:29:34.936Z,9.67
2019-06-20T17:32:03.288Z,9.20
2019-06-20T17:34:31.767Z,8.37
2019-06-20T17:37:00.424Z,9.17
2019-06-20T17:39:29.176Z,8.50
2019-06-20T17:41:57.581Z,9.70
2019-06-20T17:44:27.530Z,9.20
2019-06-20T17:46:56.056Z,8.97
2019-06-20T17:49:24.444Z,9.20
2019-06-20T17:51:52.843Z,8.40
2019-06-20T17:54:21.263Z,8.33
2019-06-20T17:56:51.522Z,9.23
2019-06-20T17:59:22.662Z,9.30
2019-06-20T18:01:52.001Z,9.20
2019-06-20T18:04:20.401Z,8.77
2019-06-20T18:06:48.858Z,9.40
2019-06-20T18:09:17.272Z,9.50
2019-06-20T18:11:45.668Z,9.63
2019-06-20T18:14:16.749Z,9.20
2019-06-20T18:16:45.283Z,10.20
2019-06-20T18:19:13.655Z,10.80
2019-06-20T18:21:45.782Z,9.90
2019-06-20T18:24:13.717Z,8.80
2019-06-20T18:26:42.188Z,9.50
2019-06-20T18:29:10.588Z,9.40
2019-06-20T18:31:42.287Z,8.83
2019-06-20T18:34:09.113Z,10.07
2019-06-20T18:36:37.526Z,9.50
2019-06-20T18:39:08.408Z,8.77
2019-06-20T18:41:36.826Z,8.60
2019-06-20T18:44:05.322Z,10.17
2019-06-20T18:46:33.739Z,10.20
2019-06-20T18:49:02.125Z,10.47
2019-06-20T18:51:30.532Z,10.60
2019-06-20T18:53:58.967Z,11.23
2019-06-20T18:56:27.391Z,11.60
2019-06-20T18:58:55.743Z,10.73
2019-06-20T19:01:24.178Z,11.57
2019-06-20T19:03:52.693Z,11.53
2019-06-20T19:06:35.201Z,11.80
2019-06-20T19:08:51.827Z,11.10
2019-06-20T19:11:20.324Z,11.17
2019-06-20T19:13:48.763Z,12.70
2019-06-20T19:16:17.160Z,13.57
2019-06-20T19:18:45.621Z,14.13
2019-06-20T19:21:14.119Z,13.40
2019-06-20T19:23:42.800Z,15.13
2019-06-20T19:26:11.204Z,14.40
2019-06-20T19:28:39.619Z,15.10
2019-06-20T19:31:08.056Z,14.63
2019-06-20T19:33:36.467Z,15.97
2019-06-20T19:36:04.925Z,15.60
2019-06-20T19:38:34.144Z,15.43
2019-06-20T19:41:02.868Z,16.70
2019-06-20T19:43:32.594Z,15.87
2019-06-20T19:46:06.735Z,14.70
2019-06-20T19:48:39.059Z,14.37
2019-06-20T19:51:07.895Z,15.00
2019-06-20T19:53:41.528Z,16.63
2019-06-20T19:56:17.393Z,15.87
2019-06-20T19:58:51.687Z,14.87
2019-06-20T20:01:17.904Z,15.83
2019-06-20T20:03:46.300Z,14.90
2019-06-20T20:06:14.783Z,15.13
2019-06-20T20:08:43.188Z,15.60
2019-06-20T20:11:11.583Z,15.73
2019-06-20T20:13:40.030Z,15.20
2019-06-20T20:16:08.511Z,15.07
2019-06-20T20:18:36.881Z,15.03
2019-06-20T20:21:05.342Z,14.33
2019-06-20T20:23:33.867Z,16.00
2019-06-20T20:26:02.359Z,15.63
2019-06-20T20:28:31.131Z,17.93
2019-06-20T20:30:59.540Z,16.27
2019-06-20T20:33:28.026Z,16.13
2019-06-20T20:35:57.010Z,17.23
2019-06-20T20:38:28.588Z,15.33
2019-06-20T20:40:57.375Z,16.80
2019-06-20T20:43:25.827Z,16.50
2019-06-20T20:45:54.220Z,15.97
2019-06-20T20:48:22.616Z,16.57
2019-06-20T20:50:51.030Z,16.60
2019-06-20T20:53:19.445Z,16.50
2019-06-20T20:55:48.083Z,17.17
2019-06-20T20:58:16.506Z,17.07
2019-06-20T21:00:54.160Z,17.20
2019-06-20T21:03:22.863Z,16.43
2019-06-20T21:05:51.950Z,17.00
2019-06-20T21:08:20.454Z,17.00
2019-06-20T21:10:48.861Z,16.43
2019-06-20T21:13:17.273Z,16.70
2019-06-20T21:15:45.648Z,16.47
2019-06-20T21:18:14.039Z,16.87
2019-06-20T21:20:42.445Z,18.17
2019-06-20T21:23:10.875Z,17.93
2019-06-20T21:25:39.277Z,17.37
2019-06-20T21:28:07.737Z,18.57
2019-06-20T21:30:36.151Z,17.93
2019-06-20T21:33:04.608Z,17.50
2019-06-20T21:35:33.244Z,18.10
2019-06-20T21:38:01.632Z,17.40
2019-06-20T21:40:30.030Z,18.00
2019-06-20T21:42:58.692Z,17.27
2019-06-20T21:45:27.357Z,17.90
2019-06-20T21:47:55.778Z,17.63
2019-06-20T21:50:24.163Z,17.90
2019-06-20T21:52:53.102Z,18.13
2019-06-20T21:55:23.655Z,17.50
2019-06-20T21:57:52.030Z,17.53
2019-06-20T22:00:42.695Z,17.50
2019-06-20T22:03:11.629Z,16.90
2019-06-20T22:05:40.614Z,17.80
2019-06-20T22:08:09.135Z,17.90
2019-06-20T22:10:37.634Z,17.30
2019-06-20T22:13:06.374Z,17.57
2019-06-20T22:15:34.833Z,19.07
2019-06-20T22:18:03.575Z,17.97
2019-06-20T22:20:32.372Z,16.67
2019-06-20T22:23:00.736Z,18.87
2019-06-20T22:25:29.284Z,19.40
2019-06-20T22:27:57.675Z,19.40
2019-06-20T22:30:34.897Z,18.60
2019-06-20T22:33:03.332Z,19.97
2019-06-20T22:35:32.044Z,18.77
2019-06-20T22:38:00.465Z,19.77
2019-06-20T22:40:29.124Z,18.43
2019-06-20T22:42:57.575Z,18.57
2019-06-20T22:45:25.970Z,19.77
2019-06-20T22:47:54.367Z,18.33
2019-06-20T22:50:22.874Z,19.77
2019-06-20T22:52:51.539Z,19.10
2019-06-20T22:55:19.941Z,18.43
2019-06-20T22:57:48.635Z,18.70
2019-06-20T23:00:17.743Z,22.07
2019-06-20T23:02:46.161Z,21.70
2019-06-20T23:05:14.865Z,20.70
2019-06-20T23:07:43.286Z,19.37
2019-06-20T23:10:11.931Z,19.80
2019-06-20T23:12:40.399Z,19.17
2019-06-20T23:15:09.435Z,19.50
2019-06-20T23:17:38.121Z,19.13
2019-06-20T23:20:08.187Z,19.47
2019-06-20T23:25:02.080Z,18.20
2019-06-20T23:27:30.909Z,19.57
2019-06-20T23:29:59.314Z,18.00
2019-06-20T23:32:27.738Z,21.77
2019-06-20T23:34:56.362Z,21.10
2019-06-20T23:37:24.755Z,23.30
2019-06-20T23:39:53.177Z,22.33
2019-06-20T23:42:21.560Z,19.50
2019-06-20T23:44:49.970Z,21.57
2019-06-20T23:47:18.360Z,23.37
2019-06-20T23:49:47.027Z,22.77
2019-06-20T23:52:17.077Z,20.97
2019-06-20T23:54:45.477Z,21.63
2019-06-20T23:57:13.868Z,21.80
2019-06-20T23:59:42.289Z,20.30
